KRWI/RWI METAR and TAF weather

Enter ICAO airport designator
Station Type Date Time Source
KRWI METAR 2019/10/23 01:53 UTC NOAA

KRWI 230153Z AUTO 32005KT 10SM BKN043 BKN055 19/17 A2988 RMK AO2 SLP116 T01940172


Station Type Date Time Source
KRWI Decoded METAR 2019/10/23 01:53 UTC NOAA

ROCKY MOUNT-WILSON AIRPORT, NC, United States (KRWI) 35-51N 077-54W 47M
Oct 22, 2019 - 09:53 PM EDT / 2019.10.23 0153 UTC
Wind: from the NW (320 degrees) at 6 MPH (5 KT):0
Visibility: 10 mile(s):0
Sky conditions: mostly cloudy
Temperature: 66.9 F (19.4 C)
Dew Point: 63.0 F (17.2 C)
Relative Humidity: 87%
Pressure (altimeter): 29.88 in. Hg (1011 hPa)
ob: KRWI 230153Z AUTO 32005KT 10SM BKN043 BKN055 19/17 A2988 RMK AO2 SLP116 T01940172
cycle: 2

Station Type Date Time Source
KRWI TAF 2019/10/22 23:42 UTC NOAA

TAF
AMD KRWI 222239Z 2223/2318 VRB03KT P6SM VCSH FEW080 SCT120 BKN250
FM230100 31006KT P6SM SCT250
TEMPO 2301/2303 BKN025

Example: see airport list